createdAt,value
2022-09-16T00:00:56.305Z,61.90
2022-09-16T00:01:56.286Z,61.90
2022-09-16T00:02:56.218Z,61.90
2022-09-16T00:03:56.240Z,61.90
2022-09-16T00:04:56.272Z,61.80
2022-09-16T00:05:56.392Z,61.90
2022-09-16T00:06:56.301Z,61.90
2022-09-16T00:07:56.282Z,61.90
2022-09-16T00:08:56.312Z,61.90
2022-09-16T00:09:56.329Z,61.90
2022-09-16T00:10:56.382Z,61.90
2022-09-16T00:11:56.352Z,61.90
2022-09-16T00:12:56.377Z,61.90
2022-09-16T00:13:56.425Z,61.80
2022-09-16T00:14:56.433Z,61.80
2022-09-16T00:15:56.511Z,61.90
2022-09-16T00:16:56.445Z,61.90
2022-09-16T00:17:56.491Z,61.90
2022-09-16T00:18:56.477Z,61.90
2022-09-16T00:19:56.492Z,61.90
2022-09-16T00:20:56.509Z,61.90
2022-09-16T00:21:56.555Z,61.90
2022-09-16T00:22:56.556Z,61.90
2022-09-16T00:23:56.604Z,61.90
2022-09-16T00:24:56.582Z,61.90
2022-09-16T00:25:56.606Z,61.90
2022-09-16T00:26:56.637Z,61.90
2022-09-16T00:27:56.658Z,61.90
2022-09-16T00:28:56.690Z,61.93
2022-09-16T00:29:56.693Z,61.90
2022-09-16T00:30:56.711Z,61.90
2022-09-16T00:31:56.769Z,61.90
2022-09-16T00:32:56.733Z,61.90
2022-09-16T00:33:56.758Z,61.90
2022-09-16T00:34:56.744Z,61.90
2022-09-16T00:35:56.773Z,61.90
2022-09-16T00:36:56.807Z,61.90
2022-09-16T00:37:56.819Z,61.90
2022-09-16T00:38:56.811Z,61.90
2022-09-16T00:39:56.969Z,61.90
2022-09-16T00:40:56.867Z,61.90
2022-09-16T00:41:56.934Z,61.90
2022-09-16T00:42:56.890Z,61.90
2022-09-16T00:43:56.922Z,61.93
2022-09-16T00:44:56.935Z,61.93
2022-09-16T00:45:56.966Z,61.90
2022-09-16T00:46:57.049Z,61.90
2022-09-16T00:47:56.972Z,61.90
2022-09-16T00:48:56.998Z,61.90
2022-09-16T00:49:57.005Z,61.93
2022-09-16T00:50:57.040Z,61.90
2022-09-16T00:51:57.068Z,61.93
2022-09-16T00:52:57.058Z,61.93
2022-09-16T00:53:57.130Z,61.93
2022-09-16T00:54:57.093Z,62.04
2022-09-16T00:55:57.111Z,61.93
2022-09-16T00:56:57.149Z,61.93
2022-09-16T00:57:57.155Z,61.93
2022-09-16T00:58:57.182Z,61.93
2022-09-16T00:59:57.210Z,61.93
2022-09-16T01:00:57.277Z,61.93
2022-09-16T01:01:57.363Z,61.93
2022-09-16T01:02:57.221Z,61.93
2022-09-16T01:03:57.203Z,61.93
2022-09-16T01:04:57.227Z,61.93
2022-09-16T01:05:57.234Z,61.93
2022-09-16T01:06:57.254Z,62.04
2022-09-16T01:07:57.288Z,61.93
2022-09-16T01:08:57.279Z,61.93
2022-09-16T01:09:57.284Z,61.93
2022-09-16T01:10:57.294Z,61.93
2022-09-16T01:11:57.271Z,61.93
2022-09-16T01:12:57.294Z,61.93
2022-09-16T01:13:57.286Z,61.93
2022-09-16T01:14:57.313Z,61.93
2022-09-16T01:15:57.404Z,61.93
2022-09-16T01:16:57.337Z,61.93
2022-09-16T01:17:57.366Z,61.93
2022-09-16T01:18:57.345Z,61.93
2022-09-16T01:19:57.359Z,61.93
2022-09-16T01:20:57.408Z,61.93
2022-09-16T01:21:57.391Z,61.93
2022-09-16T01:22:57.420Z,61.93
2022-09-16T01:23:57.402Z,61.93
2022-09-16T01:24:57.435Z,61.93
2022-09-16T01:25:57.478Z,61.93
2022-09-16T01:26:57.493Z,61.93
2022-09-16T01:27:57.507Z,61.93
2022-09-16T01:28:57.540Z,61.93
2022-09-16T01:29:57.552Z,62.04
2022-09-16T01:30:57.644Z,62.04
2022-09-16T01:31:57.578Z,62.04
2022-09-16T01:32:57.612Z,61.93
2022-09-16T01:33:57.640Z,61.93
2022-09-16T01:34:57.623Z,61.93
2022-09-16T01:35:57.645Z,61.93
2022-09-16T01:36:57.678Z,62.04
2022-09-16T01:37:57.667Z,61.93
2022-09-16T01:38:57.659Z,61.93
2022-09-16T01:39:57.705Z,61.93
2022-09-16T01:40:57.698Z,61.93
2022-09-16T01:41:57.753Z,62.04
2022-09-16T01:42:57.702Z,62.04
2022-09-16T01:43:57.741Z,62.04
2022-09-16T01:44:57.763Z,62.04
2022-09-16T01:45:57.788Z,62.04
2022-09-16T01:46:57.843Z,62.04
2022-09-16T01:47:57.850Z,62.04
2022-09-16T01:48:57.875Z,62.04
2022-09-16T01:49:57.856Z,62.04
2022-09-16T01:50:57.855Z,62.04
2022-09-16T01:51:57.861Z,62.04
2022-09-16T01:52:57.896Z,62.04
2022-09-16T01:53:57.927Z,62.04
2022-09-16T01:54:57.985Z,62.04
2022-09-16T01:55:57.964Z,62.04
2022-09-16T01:56:57.987Z,62.04
2022-09-16T01:57:58.054Z,62.04
2022-09-16T01:58:58.009Z,61.93
2022-09-16T01:59:58.034Z,61.93
2022-09-16T02:00:58.017Z,61.93
2022-09-16T02:01:58.178Z,61.93
2022-09-16T02:02:58.087Z,61.93
2022-09-16T02:03:58.063Z,61.93
2022-09-16T02:04:58.092Z,61.93
2022-09-16T02:05:58.075Z,61.93
2022-09-16T02:06:58.331Z,61.93
2022-09-16T02:07:58.099Z,61.93
2022-09-16T02:08:58.123Z,61.93
2022-09-16T02:09:58.152Z,61.93
2022-09-16T02:10:58.141Z,61.93
2022-09-16T02:11:58.161Z,61.93
2022-09-16T02:12:58.192Z,61.93
2022-09-16T02:13:58.246Z,61.93
2022-09-16T02:14:58.279Z,61.93
2022-09-16T02:15:58.299Z,61.93
2022-09-16T02:16:58.244Z,61.93
2022-09-16T02:17:58.255Z,61.93
2022-09-16T02:18:58.278Z,61.93
2022-09-16T02:19:58.317Z,61.93
2022-09-16T02:20:58.336Z,61.93
2022-09-16T02:21:58.362Z,61.93
2022-09-16T02:22:58.385Z,61.93
2022-09-16T02:23:58.435Z,62.04
2022-09-16T02:24:58.442Z,62.04
2022-09-16T02:25:58.489Z,62.04
2022-09-16T02:26:58.500Z,62.04
2022-09-16T02:27:58.518Z,62.04
2022-09-16T02:28:58.544Z,62.04
2022-09-16T02:29:58.613Z,62.04
2022-09-16T02:30:58.618Z,61.93
2022-09-16T02:31:58.587Z,62.04
2022-09-16T02:32:58.610Z,62.04
2022-09-16T02:33:58.634Z,61.93
2022-09-16T02:34:58.667Z,62.04
2022-09-16T02:35:58.697Z,62.04
2022-09-16T02:36:58.675Z,62.04
2022-09-16T02:37:58.703Z,62.04
2022-09-16T02:38:58.733Z,62.04
2022-09-16T02:39:58.818Z,62.04
2022-09-16T02:40:58.756Z,62.04
2022-09-16T02:41:58.800Z,62.04
2022-09-16T02:42:58.777Z,62.04
2022-09-16T02:43:58.787Z,62.04
2022-09-16T02:44:58.824Z,62.04
2022-09-16T02:45:58.938Z,62.04
2022-09-16T02:46:58.845Z,62.04
2022-09-16T02:47:58.870Z,62.04
2022-09-16T02:48:58.904Z,62.04
2022-09-16T02:49:58.920Z,62.04
2022-09-16T02:50:58.932Z,62.04
2022-09-16T02:51:58.974Z,62.04
2022-09-16T02:52:58.980Z,62.04
2022-09-16T02:53:59.018Z,62.04
2022-09-16T02:54:59.040Z,62.04
2022-09-16T02:55:59.091Z,62.04
2022-09-16T02:56:59.067Z,62.04
2022-09-16T02:57:59.117Z,62.04
2022-09-16T02:58:59.121Z,62.04
2022-09-16T02:59:59.157Z,62.04
2022-09-16T03:00:59.181Z,62.04
2022-09-16T03:01:59.269Z,62.04
2022-09-16T03:02:59.255Z,62.04
2022-09-16T03:03:59.191Z,62.04
2022-09-16T03:04:59.209Z,62.04
2022-09-16T03:05:59.253Z,62.04
2022-09-16T03:06:59.243Z,62.04
2022-09-16T03:07:59.257Z,62.04
2022-09-16T03:08:59.309Z,62.04
2022-09-16T03:09:59.270Z,61.93
2022-09-16T03:10:59.302Z,61.93
2022-09-16T03:11:59.340Z,61.93
2022-09-16T03:12:59.326Z,61.93
2022-09-16T03:13:59.353Z,61.93
2022-09-16T03:14:59.333Z,62.04
2022-09-16T03:15:59.472Z,62.04
2022-09-16T03:16:59.369Z,61.93
2022-09-16T03:17:59.425Z,61.93
2022-09-16T03:18:59.415Z,62.04
2022-09-16T03:19:59.447Z,61.93
2022-09-16T03:20:59.485Z,62.04
2022-09-16T03:21:59.506Z,61.93
2022-09-16T03:22:59.494Z,62.04
2022-09-16T03:23:59.481Z,61.93
2022-09-16T03:24:59.504Z,61.93
2022-09-16T03:25:59.532Z,61.93
2022-09-16T03:26:59.570Z,61.93
2022-09-16T03:27:59.558Z,61.93
2022-09-16T03:28:59.570Z,62.04
2022-09-16T03:29:59.603Z,62.04
2022-09-16T03:30:59.680Z,62.04
2022-09-16T03:31:59.622Z,62.04
2022-09-16T03:32:59.666Z,61.93
2022-09-16T03:33:59.684Z,62.04
2022-09-16T03:34:59.633Z,62.04
2022-09-16T03:35:59.659Z,62.04
2022-09-16T03:36:59.693Z,62.04
2022-09-16T03:37:59.728Z,62.04
2022-09-16T03:38:59.707Z,61.93
2022-09-16T03:39:59.793Z,61.93
2022-09-16T03:40:59.717Z,61.93
2022-09-16T03:41:59.743Z,61.93
2022-09-16T03:42:59.786Z,62.04
2022-09-16T03:44:03.739Z,61.93
2022-09-16T03:44:59.834Z,62.04
2022-09-16T03:45:59.931Z,62.04
2022-09-16T03:46:59.857Z,61.93
2022-09-16T03:48:00.113Z,62.04
2022-09-16T03:48:59.884Z,62.04
2022-09-16T03:50:00.111Z,61.93
2022-09-16T03:50:59.889Z,62.04
2022-09-16T03:51:59.907Z,62.04
2022-09-16T03:52:59.957Z,61.93
2022-09-16T03:53:59.966Z,62.04
2022-09-16T03:55:00.001Z,62.04
2022-09-16T03:56:00.015Z,62.04
2022-09-16T03:57:00.049Z,61.93
2022-09-16T03:58:00.084Z,61.93
2022-09-16T03:59:00.106Z,61.93
2022-09-16T04:00:00.108Z,62.04
2022-09-16T04:01:00.133Z,61.93
2022-09-16T04:02:00.239Z,61.93
2022-09-16T04:03:00.217Z,61.93
2022-09-16T04:04:00.134Z,61.93
2022-09-16T04:05:00.161Z,61.93
2022-09-16T04:06:00.166Z,61.93
2022-09-16T04:07:00.171Z,61.93
2022-09-16T04:08:00.175Z,61.93
2022-09-16T04:09:00.215Z,61.93
2022-09-16T04:10:00.235Z,61.93
2022-09-16T04:11:00.211Z,61.93
2022-09-16T04:12:00.246Z,61.93
2022-09-16T04:13:00.271Z,61.93
2022-09-16T04:14:00.303Z,61.93
2022-09-16T04:15:01.052Z,61.93
2022-09-16T04:16:00.376Z,61.93
2022-09-16T04:17:00.355Z,61.93
2022-09-16T04:18:00.388Z,61.96
2022-09-16T04:19:00.426Z,61.93
2022-09-16T04:20:00.410Z,61.93
2022-09-16T04:21:00.433Z,61.93
2022-09-16T04:22:00.481Z,61.93
2022-09-16T04:23:00.479Z,61.96
2022-09-16T04:24:00.520Z,61.93
2022-09-16T04:25:00.497Z,62.04
2022-09-16T04:26:00.490Z,61.96
2022-09-16T04:27:00.465Z,61.96
2022-09-16T04:28:00.472Z,61.96
2022-09-16T04:29:00.521Z,61.96
2022-09-16T04:30:00.506Z,61.96
2022-09-16T04:31:00.630Z,61.96
2022-09-16T04:32:00.521Z,61.93
2022-09-16T04:33:00.524Z,61.93
2022-09-16T04:34:00.522Z,61.96
2022-09-16T04:35:00.502Z,61.93
2022-09-16T04:36:00.503Z,61.96
2022-09-16T04:37:00.533Z,61.93
2022-09-16T04:38:00.590Z,61.93
2022-09-16T04:39:00.613Z,61.96
2022-09-16T04:40:04.524Z,61.96
2022-09-16T04:41:00.639Z,61.96
2022-09-16T04:42:00.660Z,61.96
2022-09-16T04:43:00.672Z,61.93
2022-09-16T04:44:00.706Z,61.96
2022-09-16T04:45:00.710Z,61.96
2022-09-16T04:46:00.735Z,61.96
2022-09-16T04:47:00.696Z,61.96
2022-09-16T04:48:00.691Z,61.96
2022-09-16T04:49:00.710Z,61.96
2022-09-16T04:50:00.719Z,61.96
2022-09-16T04:51:00.739Z,61.96
2022-09-16T04:52:00.795Z,61.96
2022-09-16T04:53:00.787Z,61.96
2022-09-16T04:54:00.821Z,61.96
2022-09-16T04:55:00.822Z,61.96
2022-09-16T04:56:00.840Z,61.96
2022-09-16T04:57:00.883Z,61.96
2022-09-16T04:58:00.872Z,61.96
2022-09-16T04:59:00.892Z,61.96
2022-09-16T05:00:00.924Z,61.96
2022-09-16T05:02:26.873Z,61.96
2022-09-16T05:03:26.889Z,61.96
2022-09-16T05:04:26.897Z,61.96
2022-09-16T05:05:26.888Z,61.96
2022-09-16T05:06:26.907Z,61.96
2022-09-16T05:07:26.928Z,61.96
2022-09-16T05:08:26.961Z,61.96
2022-09-16T05:09:26.977Z,61.96
2022-09-16T05:10:26.994Z,61.96
2022-09-16T05:11:26.970Z,61.96
2022-09-16T05:12:27.070Z,61.96
2022-09-16T05:13:27.098Z,61.96
2022-09-16T05:14:27.020Z,61.96
2022-09-16T05:15:27.032Z,61.96
2022-09-16T05:16:27.098Z,61.96
2022-09-16T05:17:49.317Z,61.87
2022-09-16T05:18:27.098Z,61.96
2022-09-16T05:19:27.111Z,61.87
2022-09-16T05:20:27.176Z,61.87
2022-09-16T05:21:27.132Z,61.87
2022-09-16T05:22:27.168Z,61.87
2022-09-16T05:23:27.278Z,61.87
2022-09-16T05:24:27.231Z,61.87
2022-09-16T05:25:27.360Z,61.87
2022-09-16T05:26:27.220Z,61.87
2022-09-16T05:27:27.252Z,61.96
2022-09-16T05:28:27.304Z,61.87
2022-09-16T05:29:27.281Z,61.87
2022-09-16T05:30:27.303Z,61.87
2022-09-16T05:31:27.332Z,61.87
2022-09-16T05:32:27.305Z,61.87
2022-09-16T05:33:27.338Z,61.87
2022-09-16T05:34:27.902Z,61.87
2022-09-16T05:35:27.326Z,61.87
2022-09-16T05:36:27.334Z,61.87
2022-09-16T05:37:27.361Z,61.87
2022-09-16T05:38:27.432Z,61.87
2022-09-16T05:39:27.525Z,61.76
2022-09-16T05:40:27.544Z,61.73
2022-09-16T05:41:27.566Z,61.73
2022-09-16T05:42:27.456Z,61.76
2022-09-16T05:43:27.463Z,61.73
2022-09-16T05:44:27.497Z,61.76
2022-09-16T05:45:32.026Z,61.73
2022-09-16T05:46:27.556Z,61.73
2022-09-16T05:47:27.523Z,61.73
2022-09-16T05:48:27.531Z,61.63
2022-09-16T05:49:27.544Z,61.73
2022-09-16T05:50:27.613Z,61.63
2022-09-16T05:51:38.115Z,61.73
2022-09-16T05:52:27.589Z,61.63
2022-09-16T05:53:27.596Z,61.63
2022-09-16T05:54:27.702Z,61.63
2022-09-16T05:55:27.632Z,61.63
2022-09-16T05:56:27.658Z,61.63
2022-09-16T05:57:27.806Z,61.63
2022-09-16T05:58:27.772Z,61.63
2022-09-16T05:59:27.739Z,61.63
2022-09-16T06:00:27.773Z,61.63
2022-09-16T06:01:27.826Z,61.63
2022-09-16T06:02:27.823Z,61.63
2022-09-16T06:03:27.786Z,61.63
2022-09-16T06:04:27.745Z,61.63
2022-09-16T06:05:27.743Z,61.54
2022-09-16T06:06:27.783Z,61.54
2022-09-16T06:07:27.799Z,57.93
2022-09-16T06:08:27.826Z,54.84
2022-09-16T06:09:27.855Z,54.04
2022-09-16T06:10:27.908Z,54.04
2022-09-16T06:11:27.902Z,54.14
2022-09-16T06:12:28.583Z,53.44
2022-09-16T06:13:28.088Z,52.94
2022-09-16T06:14:28.040Z,52.55
2022-09-16T06:15:27.935Z,52.04
2022-09-16T06:16:27.952Z,52.25
2022-09-16T06:17:27.928Z,52.14
2022-09-16T06:18:27.930Z,51.75
2022-09-16T06:19:27.971Z,51.64
2022-09-16T06:20:28.061Z,51.45
2022-09-16T06:21:28.002Z,51.84
2022-09-16T06:22:28.037Z,51.64
2022-09-16T06:23:28.072Z,51.25
2022-09-16T06:24:28.026Z,51.34
2022-09-16T06:25:28.047Z,51.04
2022-09-16T06:26:28.102Z,51.04
2022-09-16T06:27:28.073Z,51.15
2022-09-16T06:28:28.139Z,50.95
2022-09-16T06:29:28.215Z,50.65
2022-09-16T06:30:31.083Z,50.65
2022-09-16T06:31:28.101Z,50.84
2022-09-16T06:32:28.147Z,50.65
2022-09-16T06:33:28.155Z,50.45
2022-09-16T06:34:28.209Z,50.54
2022-09-16T06:35:28.179Z,50.35
2022-09-16T06:36:28.205Z,50.35
2022-09-16T06:37:28.334Z,50.24
2022-09-16T06:38:31.095Z,50.24
2022-09-16T06:39:28.236Z,50.84
2022-09-16T06:40:28.419Z,49.92
2022-09-16T06:41:28.281Z,50.24
2022-09-16T06:42:28.289Z,49.85
2022-09-16T06:43:28.267Z,49.55
2022-09-16T06:44:28.296Z,49.65
2022-09-16T06:45:28.453Z,49.55
2022-09-16T06:46:28.411Z,49.65
2022-09-16T06:47:28.350Z,49.74
2022-09-16T06:48:28.341Z,49.62
2022-09-16T06:49:28.367Z,49.72
2022-09-16T06:50:28.464Z,49.62
2022-09-16T06:51:28.427Z,49.52
2022-09-16T06:52:28.447Z,49.32
2022-09-16T06:53:28.465Z,49.42
2022-09-16T06:54:28.518Z,49.42
2022-09-16T06:55:28.479Z,49.32
2022-09-16T06:56:28.517Z,49.22
2022-09-16T06:57:28.599Z,49.12
2022-09-16T06:58:28.546Z,49.12
2022-09-16T06:59:28.554Z,49.22
2022-09-16T07:00:28.584Z,49.12
2022-09-16T07:01:28.972Z,49.12
2022-09-16T07:02:28.723Z,49.02
2022-09-16T07:03:28.654Z,49.02
2022-09-16T07:04:31.209Z,49.22
2022-09-16T07:05:28.628Z,49.22
2022-09-16T07:06:45.235Z,49.02
2022-09-16T07:07:28.685Z,49.02
2022-09-16T07:08:28.696Z,48.82
2022-09-16T07:09:28.706Z,48.82
2022-09-16T07:10:28.714Z,48.72
2022-09-16T07:11:28.754Z,48.94
2022-09-16T07:12:28.762Z,49.05
2022-09-16T07:13:28.818Z,48.94
2022-09-16T07:14:28.801Z,48.94
2022-09-16T07:15:28.819Z,48.75
2022-09-16T07:16:28.991Z,48.75
2022-09-16T07:17:28.970Z,48.85
2022-09-16T07:18:28.901Z,48.75
2022-09-16T07:19:28.907Z,48.75
2022-09-16T07:20:29.289Z,49.05
2022-09-16T07:21:28.887Z,49.25
2022-09-16T07:22:28.925Z,49.35
2022-09-16T07:23:28.900Z,49.85
2022-09-16T07:24:28.918Z,50.24
2022-09-16T07:25:32.469Z,50.45
2022-09-16T07:26:28.960Z,50.04
2022-09-16T07:27:29.454Z,49.65
2022-09-16T07:28:29.296Z,49.35
2022-09-16T07:29:29.037Z,49.25
2022-09-16T07:30:29.080Z,49.15
2022-09-16T07:31:29.058Z,49.05
2022-09-16T07:32:29.072Z,49.05
2022-09-16T07:33:29.361Z,49.05
2022-09-16T07:34:29.137Z,49.44
2022-09-16T07:35:29.102Z,49.55
2022-09-16T07:36:29.113Z,49.55
2022-09-16T07:37:29.145Z,49.55
2022-09-16T07:38:29.159Z,49.44
2022-09-16T07:39:29.197Z,49.35
2022-09-16T07:40:29.942Z,49.35
2022-09-16T07:41:29.226Z,49.15
2022-09-16T07:42:29.234Z,49.02
2022-09-16T07:43:29.232Z,48.85
2022-09-16T07:44:30.164Z,48.52
2022-09-16T07:45:29.275Z,48.63
2022-09-16T07:46:29.268Z,48.52
2022-09-16T07:47:29.231Z,48.22
2022-09-16T07:48:33.953Z,48.13
2022-09-16T07:49:29.405Z,48.13
2022-09-16T07:50:29.332Z,48.43
2022-09-16T07:51:29.352Z,48.22
2022-09-16T07:52:29.342Z,49.42
2022-09-16T07:53:29.612Z,50.52
2022-09-16T07:54:29.348Z,49.32
2022-09-16T07:55:29.324Z,50.12
2022-09-16T07:56:29.403Z,48.93
2022-09-16T07:57:29.359Z,49.02
2022-09-16T07:58:29.344Z,48.72
2022-09-16T07:59:29.373Z,48.52
2022-09-16T08:00:29.397Z,48.43
2022-09-16T08:01:29.423Z,48.82
2022-09-16T08:02:29.506Z,48.32
2022-09-16T08:03:29.423Z,48.22
2022-09-16T08:04:29.377Z,49.52
2022-09-16T08:05:29.521Z,49.42
2022-09-16T08:06:29.401Z,50.02
2022-09-16T08:07:29.419Z,50.52
2022-09-16T08:08:29.415Z,50.52
2022-09-16T08:09:39.110Z,50.72
2022-09-16T08:10:32.459Z,50.82
2022-09-16T08:11:29.475Z,50.79
2022-09-16T08:12:29.524Z,50.90
2022-09-16T08:13:29.524Z,50.70
2022-09-16T08:14:29.494Z,50.99
2022-09-16T08:15:29.513Z,50.60
2022-09-16T08:16:29.572Z,50.70
2022-09-16T08:17:32.023Z,51.10
2022-09-16T08:18:29.548Z,51.59
2022-09-16T08:19:29.557Z,50.99
2022-09-16T08:20:29.573Z,50.99
2022-09-16T08:21:29.711Z,50.79
2022-09-16T08:22:29.611Z,50.79
2022-09-16T08:23:29.644Z,50.79
2022-09-16T08:24:29.612Z,50.79
2022-09-16T08:25:29.626Z,50.90
2022-09-16T08:26:29.635Z,50.99
2022-09-16T08:27:29.660Z,50.90
2022-09-16T08:28:39.891Z,50.79
2022-09-16T08:29:29.697Z,50.79
2022-09-16T08:30:29.673Z,51.10
2022-09-16T08:31:29.721Z,50.99
2022-09-16T08:32:29.671Z,50.87
2022-09-16T08:33:29.679Z,50.87
2022-09-16T08:34:29.695Z,50.97
2022-09-16T08:35:29.706Z,51.07
2022-09-16T08:36:29.717Z,51.07
2022-09-16T08:37:29.856Z,51.07
2022-09-16T08:38:29.757Z,51.07
2022-09-16T08:39:29.740Z,51.07
2022-09-16T08:40:29.746Z,51.07
2022-09-16T08:41:29.771Z,51.17
2022-09-16T08:42:29.830Z,51.07
2022-09-16T08:43:29.806Z,51.17
2022-09-16T08:44:29.782Z,51.27
2022-09-16T08:45:29.910Z,51.07
2022-09-16T08:46:30.213Z,51.17
2022-09-16T08:47:29.840Z,51.37
2022-09-16T08:48:29.865Z,51.17
2022-09-16T08:49:29.886Z,51.47
2022-09-16T08:50:29.885Z,51.77
2022-09-16T08:51:29.908Z,51.57
2022-09-16T08:52:29.913Z,51.67
2022-09-16T08:53:30.055Z,51.57
2022-09-16T08:54:29.916Z,51.67
2022-09-16T08:55:29.954Z,51.67
2022-09-16T08:56:29.905Z,51.77
2022-09-16T08:57:29.928Z,51.97
2022-09-16T08:58:29.946Z,51.87
2022-09-16T08:59:29.958Z,51.07
2022-09-16T09:00:30.020Z,51.67
2022-09-16T09:01:30.327Z,51.97
2022-09-16T09:02:30.311Z,51.87
2022-09-16T09:03:30.046Z,52.07
2022-09-16T09:04:29.987Z,51.87
2022-09-16T09:05:29.947Z,52.17
2022-09-16T09:06:29.942Z,51.87
2022-09-16T09:07:29.958Z,51.87
2022-09-16T09:08:29.978Z,52.27
2022-09-16T09:09:30.181Z,51.87
2022-09-16T09:10:30.006Z,51.87
2022-09-16T09:11:30.162Z,51.87
2022-09-16T09:12:31.167Z,51.87
2022-09-16T09:13:30.084Z,51.87
2022-09-16T09:14:30.080Z,51.97
2022-09-16T09:15:30.091Z,52.17
2022-09-16T09:16:30.183Z,51.87
2022-09-16T09:17:30.153Z,52.07
2022-09-16T09:18:30.145Z,51.67
2022-09-16T09:19:30.123Z,51.67
2022-09-16T09:20:30.150Z,51.67
2022-09-16T09:21:30.181Z,51.77
2022-09-16T09:22:30.191Z,52.37
2022-09-16T09:23:30.208Z,51.97
2022-09-16T09:24:30.278Z,51.37
2022-09-16T09:25:30.395Z,51.54
2022-09-16T09:26:30.379Z,51.75
2022-09-16T09:27:30.261Z,51.65
2022-09-16T09:28:30.269Z,51.65
2022-09-16T09:29:30.285Z,51.65
2022-09-16T09:30:30.301Z,51.84
2022-09-16T09:31:30.425Z,51.65
2022-09-16T09:32:38.304Z,51.95
2022-09-16T09:33:44.915Z,51.54
2022-09-16T09:34:30.367Z,51.65
2022-09-16T09:35:30.344Z,51.65
2022-09-16T09:36:30.477Z,51.84
2022-09-16T09:37:30.381Z,51.75
2022-09-16T09:38:30.399Z,51.95
2022-09-16T09:39:30.442Z,51.65
2022-09-16T09:40:30.438Z,51.75
2022-09-16T09:41:30.544Z,51.54
2022-09-16T09:42:30.427Z,51.95
2022-09-16T09:43:30.459Z,51.65
2022-09-16T09:44:30.567Z,51.15
2022-09-16T09:45:30.520Z,51.54
2022-09-16T09:46:30.539Z,51.75
2022-09-16T09:47:30.480Z,51.75
2022-09-16T09:48:30.485Z,51.67
2022-09-16T09:49:30.501Z,51.77
2022-09-16T09:50:30.520Z,51.87
2022-09-16T09:51:30.574Z,51.87
2022-09-16T09:52:30.562Z,51.97
2022-09-16T09:53:30.525Z,51.97
2022-09-16T09:54:30.560Z,51.97
2022-09-16T09:55:30.589Z,51.87
2022-09-16T09:56:30.544Z,51.87
2022-09-16T09:57:30.701Z,51.97
2022-09-16T09:58:30.564Z,51.87
2022-09-16T09:59:30.607Z,52.17
2022-09-16T10:00:30.617Z,52.47
2022-09-16T10:01:30.643Z,52.27
2022-09-16T10:02:30.745Z,52.07
2022-09-16T10:03:30.668Z,52.07
2022-09-16T10:04:30.685Z,52.07
2022-09-16T10:05:30.686Z,52.17
2022-09-16T10:06:30.704Z,52.27
2022-09-16T10:07:30.724Z,52.37
2022-09-16T10:08:30.820Z,52.14
2022-09-16T10:09:30.765Z,51.65
2022-09-16T10:10:30.793Z,51.84
2022-09-16T10:11:30.788Z,51.95
2022-09-16T10:12:30.805Z,51.62
2022-09-16T10:13:30.926Z,51.72
2022-09-16T10:14:30.893Z,52.22
2022-09-16T10:15:30.766Z,51.72
2022-09-16T10:16:30.880Z,51.72
2022-09-16T10:17:30.801Z,52.12
2022-09-16T10:18:30.769Z,51.62
2022-09-16T10:19:30.764Z,51.72
2022-09-16T10:20:30.812Z,51.72
2022-09-16T10:21:30.792Z,51.92
2022-09-16T10:22:30.781Z,51.82
2022-09-16T10:23:30.884Z,51.92
2022-09-16T10:24:30.946Z,52.02
2022-09-16T10:25:30.815Z,52.02
2022-09-16T10:26:30.838Z,51.92
2022-09-16T10:27:30.886Z,52.22
2022-09-16T10:28:30.928Z,52.14
2022-09-16T10:29:31.108Z,52.02
2022-09-16T10:30:30.900Z,52.74
2022-09-16T10:31:34.204Z,52.94
2022-09-16T10:32:30.913Z,52.34
2022-09-16T10:33:30.933Z,52.25
2022-09-16T10:34:32.159Z,52.04
2022-09-16T10:35:30.969Z,52.14
2022-09-16T10:36:30.990Z,51.65
2022-09-16T10:37:30.983Z,51.95
2022-09-16T10:38:31.015Z,52.55
2022-09-16T10:39:31.038Z,52.64
2022-09-16T10:40:31.177Z,53.14
2022-09-16T10:41:31.046Z,52.55
2022-09-16T10:42:31.057Z,52.44
2022-09-16T10:43:31.084Z,52.64
2022-09-16T10:44:31.200Z,52.64
2022-09-16T10:45:31.257Z,51.95
2022-09-16T10:46:31.219Z,52.25
2022-09-16T10:47:31.126Z,52.04
2022-09-16T10:48:31.149Z,52.14
2022-09-16T10:49:31.184Z,52.04
2022-09-16T10:50:31.162Z,52.14
2022-09-16T10:51:31.208Z,52.14
2022-09-16T10:52:31.219Z,51.82
2022-09-16T10:53:31.246Z,51.52
2022-09-16T10:54:31.254Z,51.42
2022-09-16T10:55:31.341Z,51.42
2022-09-16T10:56:31.254Z,51.32
2022-09-16T10:57:31.381Z,51.52
2022-09-16T10:58:31.293Z,51.52
2022-09-16T10:59:31.342Z,51.62
2022-09-16T11:00:31.365Z,51.82
2022-09-16T11:01:32.305Z,51.82
2022-09-16T11:02:31.313Z,51.92
2022-09-16T11:03:31.333Z,51.92
2022-09-16T11:04:31.385Z,51.92
2022-09-16T11:05:31.364Z,51.82
2022-09-16T11:06:31.374Z,52.02
2022-09-16T11:07:31.372Z,52.12
2022-09-16T11:08:31.406Z,52.12
2022-09-16T11:09:31.431Z,52.12
2022-09-16T11:10:31.463Z,52.02
2022-09-16T11:12:31.459Z,52.12
2022-09-16T11:13:31.487Z,52.32
2022-09-16T11:14:31.474Z,52.22
2022-09-16T11:15:31.465Z,52.51
2022-09-16T11:16:31.581Z,52.42
2022-09-16T11:17:31.632Z,52.51
2022-09-16T11:18:31.491Z,52.12
2022-09-16T11:19:31.488Z,52.32
2022-09-16T11:20:31.537Z,52.42
2022-09-16T11:21:31.587Z,52.42
2022-09-16T11:22:31.554Z,52.62
2022-09-16T11:23:31.546Z,53.11
2022-09-16T11:24:31.559Z,52.81
2022-09-16T11:25:31.593Z,53.02
2022-09-16T11:26:31.594Z,52.72
2022-09-16T11:27:31.615Z,52.92
2022-09-16T11:28:31.657Z,52.81
2022-09-16T11:29:31.739Z,52.92
2022-09-16T11:30:31.636Z,52.81
2022-09-16T11:31:31.718Z,52.72
2022-09-16T11:32:31.773Z,52.92
2022-09-16T11:33:31.818Z,52.72
2022-09-16T11:34:31.758Z,52.49
2022-09-16T11:35:32.007Z,52.69
2022-09-16T11:36:31.838Z,52.69
2022-09-16T11:37:31.763Z,52.69
2022-09-16T11:38:31.768Z,52.69
2022-09-16T11:39:31.779Z,52.79
2022-09-16T11:40:31.898Z,52.79
2022-09-16T11:41:31.792Z,52.69
2022-09-16T11:42:31.835Z,52.79
2022-09-16T11:43:31.849Z,52.79
2022-09-16T11:44:31.858Z,52.69
2022-09-16T11:45:31.881Z,52.81
2022-09-16T11:46:32.081Z,53.02
2022-09-16T11:47:31.875Z,53.02
2022-09-16T11:48:31.938Z,53.22
2022-09-16T11:49:32.067Z,52.92
2022-09-16T11:50:31.948Z,53.31
2022-09-16T11:51:31.918Z,53.22
2022-09-16T11:52:32.319Z,53.02
2022-09-16T11:53:35.296Z,53.31
2022-09-16T11:54:31.981Z,53.31
2022-09-16T11:55:32.013Z,53.11
2022-09-16T11:56:32.139Z,53.11
2022-09-16T11:57:32.050Z,53.11
2022-09-16T11:58:32.062Z,53.61
2022-09-16T11:59:32.055Z,53.71
2022-09-16T12:00:32.089Z,53.71
2022-09-16T12:01:32.093Z,53.22
2022-09-16T12:02:32.273Z,53.41
2022-09-16T12:03:32.124Z,53.52
2022-09-16T12:04:34.891Z,53.41
2022-09-16T12:05:32.281Z,53.52
2022-09-16T12:06:32.140Z,53.61
2022-09-16T12:07:32.172Z,53.41
2022-09-16T12:08:32.183Z,53.61
2022-09-16T12:09:32.201Z,53.91
2022-09-16T12:10:32.223Z,54.01
2022-09-16T12:11:32.198Z,54.11
2022-09-16T12:12:32.232Z,54.21
2022-09-16T12:13:32.250Z,53.81
2022-09-16T12:14:32.267Z,54.01
2022-09-16T12:15:32.334Z,54.11
2022-09-16T12:16:32.633Z,54.21
2022-09-16T12:17:32.291Z,53.61
2022-09-16T12:18:32.324Z,54.01
2022-09-16T12:19:32.316Z,53.52
2022-09-16T12:20:32.325Z,53.69
2022-09-16T12:21:32.493Z,53.39
2022-09-16T12:22:32.352Z,53.99
2022-09-16T12:23:32.382Z,53.89
2022-09-16T12:24:32.381Z,53.59
2022-09-16T12:25:32.407Z,53.39
2022-09-16T12:26:32.443Z,53.89
2022-09-16T12:27:32.472Z,54.28
2022-09-16T12:28:32.456Z,53.49
2022-09-16T12:29:32.454Z,53.49
2022-09-16T12:30:32.494Z,53.89
2022-09-16T12:31:32.519Z,53.78
2022-09-16T12:32:32.497Z,53.29
2022-09-16T12:33:32.545Z,53.39
2022-09-16T12:34:32.557Z,53.29
2022-09-16T12:35:32.602Z,53.29
2022-09-16T12:36:32.523Z,53.46
2022-09-16T12:37:32.665Z,53.36
2022-09-16T12:38:32.539Z,53.27
2022-09-16T12:39:32.532Z,53.46
2022-09-16T12:40:32.676Z,54.06
2022-09-16T12:41:32.585Z,53.06
2022-09-16T12:42:32.597Z,53.06
2022-09-16T12:43:32.642Z,52.97
2022-09-16T12:44:34.737Z,53.27
2022-09-16T12:45:32.622Z,52.76
2022-09-16T12:46:32.709Z,53.06
2022-09-16T12:47:32.639Z,53.16
2022-09-16T12:48:32.683Z,53.86
2022-09-16T12:49:32.674Z,53.36
2022-09-16T12:50:32.685Z,53.56
2022-09-16T12:51:32.722Z,53.36
2022-09-16T12:52:32.728Z,53.27
2022-09-16T12:53:32.865Z,53.36
2022-09-16T12:54:41.257Z,53.46
2022-09-16T12:55:32.782Z,53.36